Whitefield, NH

1:04 AM EDT on September 05, 2015 (GMT -0400)
Kilkenny View Rd | | Change Station
CLOSE
Current Station
Personal Weather Station
Location: Jefferson, NH
Elevation: 1093 ft
Nearby Weather Stations

Elev 1093 ft 44.44 °N, 71.51 °W | Updated 4 seconds ago

Clear
Clear
49.5 °F
Feels Like 50 °F
N
0.0
Wind Variable Wind from North
Gusts 0.0 mph

Today
High -- | Low -- °F
--% Chance of Precip.
Yesterday
High -- | Low -- °F
Precip. -- in
6:13 AM 7:16 PM
Waning Gibbous, 52% visible
Pressure 30.27 in
Visibility 10.0 miles
Clouds Clear
Windchill 50 °F
Dew Point 47 °F
Humidity 92%
Rainfall 0.00 in
Snow Depth Not available.
UV 0 out of 12
Pollen 7.90 out of 12
Air Quality Not available.
Flu Activity Not available.
METAR KHIE 050452Z AUTO 00000KT 10SM CLR 11/09 A3027 RMK AO2 SLP251 T01060094 402670094 TSNO
Pressure 30.27 in
Visibility 10.0 miles
Clouds Clear
Windchill 50 °F
Dew Point 47 °F
Humidity 92%
Rainfall 0.00 in
Snow Depth Not available.
UV 0 out of 12
Pollen 7.90 out of 12
Air Quality Not available.
Flu Activity Not available.
METAR KHIE 050452Z AUTO 00000KT 10SM CLR 11/09 A3027 RMK AO2 SLP251 T01060094 402670094 TSNO

10-Day Weather Forecast

×

Almanac

Astronomy

Sep. 05, 2015 Rise Set
Actual Time
Civil Twilight
Nautical Twilight
Astronomical Twilight
Moon
Length of Visible Light
Length of Day
Tomorrow will be .
, % of the Moon is Illuminated

Today's Extremes

State Highs State Lows

Community

WunderPhotos

Upload Photos

1,852,426 photos uploaded!

WunderBlogs® & News

Nearby

Air Quality

  Air Quality AQ Index Pollutant
Not available.

Snow Depth

Station Depth Elevation

Earthquake Activity

City Distance Mag. Time & Date
Minimum magnitude displayed is 2.5.

Coastal Water Temperatures

Place Temperature

Stations

Nearby Weather Stations

Station Location Temp. Windchill Dew Point Humidity Wind Precip. Elev Updated Type